Time;durP1;ratioP1;P1;durP2;ratioP2;P2;SDS_P1;SDS_P2;PMS_P1;PMS_P2;Temp;Humidity;BMP_temperature;BMP_pressure;BME280_temperature;BME280_humidity;BME280_pressure;Samples;Min_cycle;Max_cycle;Signal;HPM_P1;HPM_P2
2022/09/14 00:01:17;;;;;;;;;;;;;;;27.06;nan;100235.84;5053746;28;1205;-40
2022/09/14 00:03:52;;;;;;;;;;;;;;;26.97;nan;100212.72;5053537;28;754;-42
2022/09/14 00:06:19;;;;;;;;;;;;;;;27.01;nan;100203.41;5053414;28;1252;-41
2022/09/14 00:08:49;;;;;;;;;;;;;;;26.91;nan;100178.59;5053307;28;1909;-42
2022/09/14 00:11:16;;;;;;;;;;;;;;;26.99;nan;100160.78;5053303;28;1276;-39
2022/09/14 00:13:43;;;;;;;;;;;;;;;26.99;nan;100159.97;5053283;28;1193;-39
2022/09/14 00:16:16;;;;;;;;;;;;;;;27.05;nan;100152.16;5053425;28;1216;-41
2022/09/14 00:18:43;;;;;;;;;;;;;;;27.03;nan;100142.63;5053483;28;893;-41
2022/09/14 00:21:11;;;;;;;;;;;;;;;27.03;nan;100140.78;5049464;28;1572;-39
2022/09/14 00:23:39;;;;;;;;;;;;;;;27.06;nan;100115.56;5052129;28;1273;-40
2022/09/14 00:26:11;;;;;;;;;;;;;;;27.07;nan;100106.56;5066054;28;1296;-44
2022/09/14 00:28:48;;;;;;;;;;;;;;;27.04;nan;100069.47;5051603;28;1965;-40
2022/09/14 00:31:16;;;;;;;;;;;;;;;26.86;nan;100068.66;5052047;28;1201;-41
2022/09/14 00:33:43;;;;;;;;;;;;;;;26.91;nan;100077.03;5052112;28;1007;-41
2022/09/14 00:36:11;;;;;;;;;;;;;;;27.01;nan;100093.81;5052651;28;1499;-40
2022/09/14 00:38:38;;;;;;;;;;;;;;;27.00;nan;100098.31;5052807;28;1183;-42
2022/09/14 00:41:06;;;;;;;;;;;;;;;26.98;nan;100102.16;5052641;28;1197;-40
2022/09/14 00:43:50;;;;;;;;;;;;;;;26.98;nan;100102.16;5052851;28;1162;-40
2022/09/14 00:46:16;;;;;;;;;;;;;;;26.90;nan;100084.22;5052165;28;1304;-40
2022/09/14 00:48:43;;;;;;;;;;;;;;;26.87;nan;100079.19;5051735;28;1902;-39
2022/09/14 00:51:10;;;;;;;;;;;;;;;26.94;nan;100084.75;5052407;28;1221;-40
2022/09/14 00:53:37;;;;;;;;;;;;;;;26.97;nan;100076.41;5052514;28;1182;-42
2022/09/14 00:56:04;;;;;;;;;;;;;;;26.88;nan;100066.66;5052375;28;1284;-40
2022/09/14 00:58:31;;;;;;;;;;;;;;;26.85;nan;100062.47;5052542;28;1267;-40
2022/09/14 01:00:59;;;;;;;;;;;;;;;26.88;nan;100053.31;5051643;28;1233;-41
2022/09/14 01:03:25;;;;;;;;;;;;;;;26.86;nan;100042.78;5052112;28;1269;-41
2022/09/14 01:06:03;;;;;;;;;;;;;;;26.77;nan;100024.13;5052257;28;1295;-41
2022/09/14 01:08:45;;;;;;;;;;;;;;;26.78;nan;100031.19;5052471;28;1910;-40
2022/09/14 01:11:18;;;;;;;;;;;;;;;26.75;nan;100034.97;5052429;28;1347;-41
2022/09/14 01:13:58;;;;;;;;;;;;;;;26.78;nan;100055.22;5052027;28;1081;-39
2022/09/14 01:16:37;;;;;;;;;;;;;;;26.70;nan;100089.88;5051886;28;1303;-40
2022/09/14 01:19:09;;;;;;;;;;;;;;;26.67;nan;100143.59;5052216;28;1212;-41
2022/09/14 01:21:39;;;;;;;;;;;;;;;26.69;nan;100195.06;5052346;28;1115;-42
2022/09/14 01:24:21;;;;;;;;;;;;;;;26.75;nan;100211.31;5045673;28;1522;-42
2022/09/14 01:26:57;;;;;;;;;;;;;;;26.80;nan;100219.75;5032888;28;1659;-41
2022/09/14 01:29:32;;;;;;;;;;;;;;;26.82;nan;100231.13;5051842;28;1971;-41
2022/09/14 01:32:02;;;;;;;;;;;;;;;26.54;nan;100256.16;5052476;28;907;-40
2022/09/14 01:34:43;;;;;;;;;;;;;;;26.38;nan;100272.84;5052231;28;1241;-41
2022/09/14 01:37:12;;;;;;;;;;;;;;;26.25;nan;100258.13;5052708;28;986;-42
2022/09/14 01:39:41;;;;;;;;;;;;;;;26.16;nan;100254.53;5052384;28;1267;-42
2022/09/14 01:42:11;;;;;;;;;;;;;;;26.19;nan;100264.06;5052731;28;1051;-40
2022/09/14 01:44:40;;;;;;;;;;;;;;;26.09;nan;100262.25;5052716;28;1311;-40
2022/09/14 01:47:22;;;;;;;;;;;;;;;25.77;nan;100235.13;5052163;28;1066;-41
2022/09/14 01:49:51;;;;;;;;;;;;;;;25.83;nan;100260.38;5051987;28;1914;-41
2022/09/14 01:52:26;;;;;;;;;;;;;;;25.94;nan;100273.53;5052315;28;959;-40
2022/09/14 01:54:53;;;;;;;;;;;;;;;25.80;nan;100253.50;5050080;28;1305;-40
2022/09/14 01:57:52;;;;;;;;;;;;;;;25.76;nan;100292.09;5052175;28;1116;-40
2022/09/14 02:00:20;;;;;;;;;;;;;;;25.32;nan;100292.69;5050699;28;1367;-41
2022/09/14 02:02:51;;;;;;;;;;;;;;;25.17;nan;100315.41;5051074;28;1037;-39
2022/09/14 02:05:18;;;;;;;;;;;;;;;24.58;nan;100352.66;5054593;28;1296;-41
2022/09/14 02:07:45;;;;;;;;;;;;;;;24.33;nan;100352.13;5056039;28;1100;-39
2022/09/14 02:10:13;;;;;;;;;;;;;;;24.29;nan;100377.31;5050245;28;1979;-40
2022/09/14 02:12:41;;;;;;;;;;;;;;;24.05;nan;100387.34;5035915;28;1050;-40
2022/09/14 02:15:08;;;;;;;;;;;;;;;23.92;nan;100362.78;5034194;28;1306;-39
2022/09/14 02:17:36;;;;;;;;;;;;;;;23.86;nan;100320.75;5033723;28;932;-39
2022/09/14 02:20:04;;;;;;;;;;;;;;;23.81;nan;100253.78;5032223;28;1288;-39
2022/09/14 02:22:31;;;;;;;;;;;;;;;23.84;nan;100182.53;5047581;28;1010;-40
2022/09/14 02:24:58;;;;;;;;;;;;;;;23.69;nan;100188.34;5053767;28;1310;-40
2022/09/14 02:27:25;;;;;;;;;;;;;;;23.71;nan;100226.31;5054097;28;1101;-40
2022/09/14 02:29:52;;;;;;;;;;;;;;;23.63;nan;100242.06;5054339;28;1902;-41
2022/09/14 02:32:34;;;;;;;;;;;;;;;23.46;nan;100221.38;5054397;28;1232;-39
2022/09/14 02:35:20;;;;;;;;;;;;;;;23.61;nan;100204.13;5055424;28;1209;-40
2022/09/14 02:38:05;;;;;;;;;;;;;;;23.52;nan;100215.53;5055663;28;1031;-39
2022/09/14 02:40:35;;;;;;;;;;;;;;;23.59;nan;100228.16;5087176;28;1415;-41
2022/09/14 02:43:14;;;;;;;;;;;;;;;23.63;nan;100244.72;5055772;28;1130;-41
2022/09/14 02:45:44;;;;;;;;;;;;;;;23.72;nan;100226.16;5055371;28;1222;-41
2022/09/14 02:48:29;;;;;;;;;;;;;;;23.85;nan;100242.75;5055171;28;1592;-41
2022/09/14 02:50:56;;;;;;;;;;;;;;;23.92;nan;100305.06;5055032;28;1906;-41
2022/09/14 02:53:26;;;;;;;;;;;;;;;23.90;nan;100250.31;5054868;28;1179;-39
2022/09/14 02:56:00;;;;;;;;;;;;;;;24.11;nan;100267.13;5054657;28;1296;-42
2022/09/14 02:58:38;;;;;;;;;;;;;;;24.21;nan;100214.78;5055563;28;1266;-41
2022/09/14 03:01:06;;;;;;;;;;;;;;;23.99;nan;100214.94;5054937;28;1375;-40
2022/09/14 03:03:33;;;;;;;;;;;;;;;24.14;nan;100195.00;5055082;28;1177;-41
2022/09/14 03:06:01;;;;;;;;;;;;;;;24.27;nan;100171.66;5054890;28;1178;-40
2022/09/14 03:08:28;;;;;;;;;;;;;;;24.34;nan;100162.16;5055445;28;1187;-40
2022/09/14 03:10:55;;;;;;;;;;;;;;;24.45;nan;100164.69;5055186;28;1977;-41
2022/09/14 03:13:22;;;;;;;;;;;;;;;24.40;nan;100144.81;5055464;28;1241;-40
2022/09/14 03:15:49;;;;;;;;;;;;;;;24.53;nan;100123.25;5055098;28;1292;-40
2022/09/14 03:18:15;;;;;;;;;;;;;;;24.42;nan;100109.06;5055200;28;923;-42
2022/09/14 03:20:43;;;;;;;;;;;;;;;24.54;nan;100098.28;5055131;28;1225;-41
2022/09/14 03:23:10;;;;;;;;;;;;;;;24.58;nan;100094.38;5055182;28;1121;-41
2022/09/14 03:25:37;;;;;;;;;;;;;;;24.62;nan;100101.94;5054777;28;1217;-41
2022/09/14 03:28:05;;;;;;;;;;;;;;;24.59;nan;100096.06;5055247;28;1133;-41
2022/09/14 03:30:32;;;;;;;;;;;;;;;24.60;nan;100105.72;5054866;28;1961;-42
2022/09/14 03:32:59;;;;;;;;;;;;;;;24.50;nan;100076.41;5055057;28;1055;-42
2022/09/14 03:35:30;;;;;;;;;;;;;;;24.47;nan;100066.03;5054500;28;1197;-41
2022/09/14 03:37:58;;;;;;;;;;;;;;;24.27;nan;100070.53;5054491;28;1007;-42
2022/09/14 03:40:25;;;;;;;;;;;;;;;24.35;nan;100073.31;5054606;28;1354;-41
2022/09/14 03:42:52;;;;;;;;;;;;;;;24.37;nan;100076.72;5054898;28;1033;-40
2022/09/14 03:45:19;;;;;;;;;;;;;;;24.48;nan;100078.38;5054275;28;1303;-40
2022/09/14 03:47:46;;;;;;;;;;;;;;;24.43;nan;100070.00;5054595;28;1623;-41
2022/09/14 03:50:14;;;;;;;;;;;;;;;24.35;nan;100077.81;5054236;28;2065;-41
2022/09/14 03:52:41;;;;;;;;;;;;;;;24.26;nan;100086.63;5054413;28;1104;-41
2022/09/14 03:55:08;;;;;;;;;;;;;;;23.93;nan;100120.56;5054289;28;1403;-40
2022/09/14 03:57:35;;;;;;;;;;;;;;;23.89;nan;100113.00;5054372;28;1056;-41
2022/09/14 04:00:03;;;;;;;;;;;;;;;24.01;nan;100085.31;5053879;28;1234;-39
2022/09/14 04:02:29;;;;;;;;;;;;;;;24.06;nan;100075.09;5053989;28;1041;-40
2022/09/14 04:04:56;;;;;;;;;;;;;;;24.08;nan;100086.44;5053773;28;1209;-41
2022/09/14 04:07:23;;;;;;;;;;;;;;;24.02;nan;100112.72;5054098;28;1118;-40
2022/09/14 04:09:49;;;;;;;;;;;;;;;24.18;nan;100113.94;5053910;28;1984;-38
2022/09/14 04:12:16;;;;;;;;;;;;;;;24.16;nan;100107.94;5054090;28;1101;-41
2022/09/14 04:14:43;;;;;;;;;;;;;;;24.18;nan;100075.84;5053576;28;1213;-40
2022/09/14 04:17:09;;;;;;;;;;;;;;;24.22;nan;100099.41;5053874;28;1029;-40
2022/09/14 04:19:40;;;;;;;;;;;;;;;24.14;nan;100026.53;5053557;28;1228;-39
2022/09/14 04:22:07;;;;;;;;;;;;;;;24.43;nan;100139.19;5051930;28;1596;-41
2022/09/14 04:24:33;;;;;;;;;;;;;;;24.54;nan;100119.56;5053277;28;1423;-38
2022/09/14 04:27:00;;;;;;;;;;;;;;;24.43;nan;100112.59;5053184;28;1194;-41
2022/09/14 04:29:29;;;;;;;;;;;;;;;24.41;nan;100096.72;5052569;28;1906;-40
2022/09/14 04:31:56;;;;;;;;;;;;;;;24.44;nan;100056.53;5053517;28;1020;-41
2022/09/14 04:34:23;;;;;;;;;;;;;;;24.59;nan;100104.03;5053481;28;1303;-39
2022/09/14 04:36:50;;;;;;;;;;;;;;;24.53;nan;100100.09;5053610;28;1506;-42
2022/09/14 04:39:17;;;;;;;;;;;;;;;24.53;nan;100081.47;5053553;28;1355;-41
2022/09/14 04:41:44;;;;;;;;;;;;;;;24.72;nan;100067.28;5053438;28;1246;-39
2022/09/14 04:44:10;;;;;;;;;;;;;;;24.68;nan;100042.78;5053576;28;717;-41
2022/09/14 04:46:41;;;;;;;;;;;;;;;24.64;nan;100029.91;5053269;28;1068;-41
2022/09/14 04:49:12;;;;;;;;;;;;;;;24.76;nan;100050.91;5053064;28;2049;-40
2022/09/14 04:51:39;;;;;;;;;;;;;;;24.74;nan;100050.22;5053353;28;1076;-41
2022/09/14 04:54:06;;;;;;;;;;;;;;;24.83;nan;100070.69;5085185;28;1090;-41
2022/09/14 04:56:34;;;;;;;;;;;;;;;24.86;nan;100019.81;5053177;28;1170;-41
2022/09/14 04:59:03;;;;;;;;;;;;;;;24.86;nan;100058.91;5053320;28;721;-40
2022/09/14 05:01:31;;;;;;;;;;;;;;;24.85;nan;100071.41;5051036;28;1729;-42
2022/09/14 05:03:58;;;;;;;;;;;;;;;24.93;nan;100089.31;5051642;28;782;-42
2022/09/14 05:06:26;;;;;;;;;;;;;;;24.88;nan;100092.41;5052959;28;1272;-40
2022/09/14 05:08:54;;;;;;;;;;;;;;;24.83;nan;100109.81;5033123;28;953;-41
2022/09/14 05:11:21;;;;;;;;;;;;;;;24.93;nan;100126.59;5032482;28;1914;-41
2022/09/14 05:13:48;;;;;;;;;;;;;;;25.02;nan;100122.28;5033064;28;929;-41
2022/09/14 05:16:18;;;;;;;;;;;;;;;25.03;nan;100074.16;5033049;28;1268;-41
2022/09/14 05:18:45;;;;;;;;;;;;;;;25.10;nan;100085.94;5033237;28;970;-40
2022/09/14 05:21:13;;;;;;;;;;;;;;;25.04;nan;100107.81;5035618;28;1277;-42
2022/09/14 05:23:41;;;;;;;;;;;;;;;25.07;nan;100114.69;5053539;28;1147;-41
2022/09/14 05:26:07;;;;;;;;;;;;;;;25.04;nan;100138.94;5049481;28;1272;-40
2022/09/14 05:28:35;;;;;;;;;;;;;;;25.04;nan;100138.94;5052640;28;1176;-39
2022/09/14 05:31:08;;;;;;;;;;;;;;;25.15;nan;100120.13;5052071;28;1922;-40
2022/09/14 05:33:35;;;;;;;;;;;;;;;25.17;nan;100136.84;5053144;28;1287;-39
2022/09/14 05:36:03;;;;;;;;;;;;;;;25.19;nan;100138.38;5052144;28;1322;-39
2022/09/14 05:38:31;;;;;;;;;;;;;;;25.06;nan;100131.66;5054685;28;1617;-39
2022/09/14 05:40:58;;;;;;;;;;;;;;;25.04;nan;100160.28;5056271;28;1391;-41
2022/09/14 05:43:25;;;;;;;;;;;;;;;25.14;nan;100129.94;5056787;28;1238;-38
2022/09/14 05:45:51;;;;;;;;;;;;;;;25.19;nan;100157.03;5056145;28;1367;-39
2022/09/14 05:48:18;;;;;;;;;;;;;;;25.22;nan;100150.56;5056236;28;1128;-39
2022/09/14 05:50:45;;;;;;;;;;;;;;;25.26;nan;100162.63;5055714;28;1914;-39
2022/09/14 05:53:11;;;;;;;;;;;;;;;25.21;nan;100195.03;5056463;28;1005;-40
2022/09/14 05:55:38;;;;;;;;;;;;;;;25.26;nan;100195.44;5087663;28;1366;-39
2022/09/14 05:58:05;;;;;;;;;;;;;;;25.30;nan;100172.84;5056131;28;1125;-40
2022/09/14 06:00:31;;;;;;;;;;;;;;;25.23;nan;100173.59;5053255;28;1272;-42
2022/09/14 06:02:58;;;;;;;;;;;;;;;25.15;nan;100176.09;5053643;28;1552;-41
2022/09/14 06:05:25;;;;;;;;;;;;;;;25.14;nan;100148.59;5055641;28;1307;-41
2022/09/14 06:07:52;;;;;;;;;;;;;;;25.25;nan;100143.13;5054037;28;1142;-36
2022/09/14 06:10:19;;;;;;;;;;;;;;;25.42;nan;100134.38;5046881;28;1914;-38
2022/09/14 06:12:46;;;;;;;;;;;;;;;25.43;nan;100112.06;5053127;28;1144;-40
2022/09/14 06:15:16;;;;;;;;;;;;;;;25.44;nan;100127.06;5053548;28;1323;-40
2022/09/14 06:17:42;;;;;;;;;;;;;;;25.50;nan;100136.38;5051783;28;1588;-38
2022/09/14 06:20:09;;;;;;;;;;;;;;;25.51;nan;100117.53;5066422;28;1212;-40
2022/09/14 06:22:36;;;;;;;;;;;;;;;25.46;nan;100114.44;5057134;28;1039;-39
2022/09/14 06:25:03;;;;;;;;;;;;;;;25.44;nan;100158.25;5065813;28;1220;-39
2022/09/14 06:27:30;;;;;;;;;;;;;;;25.50;nan;100179.03;5034155;28;1034;-37
2022/09/14 06:29:56;;;;;;;;;;;;;;;25.49;nan;100182.66;5033892;28;1981;-38
2022/09/14 06:32:23;;;;;;;;;;;;;;;25.58;nan;100194.28;5032621;28;1093;-39
2022/09/14 06:34:50;;;;;;;;;;;;;;;25.66;nan;100210.41;5032434;28;1656;-39
2022/09/14 06:37:16;;;;;;;;;;;;;;;25.61;nan;100218.84;5052173;28;902;-41
2022/09/14 06:39:43;;;;;;;;;;;;;;;25.61;nan;100240.19;5052047;28;1274;-39
2022/09/14 06:42:10;;;;;;;;;;;;;;;25.61;nan;100266.88;5052265;28;1116;-39
2022/09/14 06:44:37;;;;;;;;;;;;;;;25.43;nan;100264.06;5052397;28;1221;-39
2022/09/14 06:47:03;;;;;;;;;;;;;;;25.45;nan;100239.91;5053936;28;1043;-38
2022/09/14 06:49:30;;;;;;;;;;;;;;;25.56;nan;100226.47;5053075;28;1634;-39
2022/09/14 06:51:59;;;;;;;;;;;;;;;25.61;nan;100212.69;5054255;28;1914;-41
2022/09/14 06:54:26;;;;;;;;;;;;;;;25.65;nan;100208.75;5054797;28;1978;-41
2022/09/14 06:56:53;;;;;;;;;;;;;;;25.68;nan;100245.81;5054919;28;922;-40
2022/09/14 06:59:19;;;;;;;;;;;;;;;25.67;nan;100250.28;5053601;28;1188;-40
2022/09/14 07:01:49;;;;;;;;;;;;;;;25.70;nan;100260.66;5053004;28;1045;-40
2022/09/14 07:04:16;;;;;;;;;;;;;;;25.67;nan;100265.44;5054708;28;1217;-39
2022/09/14 07:06:44;;;;;;;;;;;;;;;25.74;nan;100266.56;5054780;28;1021;-40
2022/09/14 07:09:11;;;;;;;;;;;;;;;25.66;nan;100245.94;5066193;28;1492;-38
2022/09/14 07:11:38;;;;;;;;;;;;;;;25.78;nan;100222.59;5051970;28;1910;-39
2022/09/14 07:14:05;;;;;;;;;;;;;;;25.78;nan;100233.25;5059334;28;1052;-40
2022/09/14 07:16:33;;;;;;;;;;;;;;;25.79;nan;100238.47;5073462;28;1216;-40
2022/09/14 07:19:01;;;;;;;;;;;;;;;25.78;nan;100241.25;5061443;28;854;-41
2022/09/14 07:21:29;;;;;;;;;;;;;;;25.79;nan;100230.47;5054050;28;1213;-41
2022/09/14 07:23:56;;;;;;;;;;;;;;;25.81;nan;100225.81;5054153;28;824;-41
2022/09/14 07:26:25;;;;;;;;;;;;;;;25.80;nan;100249.97;5054338;28;1225;-37
2022/09/14 07:28:54;;;;;;;;;;;;;;;25.75;nan;100238.88;5053650;28;735;-37
2022/09/14 07:31:25;;;;;;;;;;;;;;;25.78;nan;100196.75;5052735;28;1910;-39
2022/09/14 07:33:53;;;;;;;;;;;;;;;25.83;nan;100175.00;5053937;28;936;-37
2022/09/14 07:36:21;;;;;;;;;;;;;;;25.89;nan;100161.06;5054444;28;1270;-37
2022/09/14 07:38:48;;;;;;;;;;;;;;;25.82;nan;100162.63;5053216;28;1079;-40
2022/09/14 07:41:19;;;;;;;;;;;;;;;25.86;nan;100196.88;5054057;28;1539;-40
2022/09/14 07:43:49;;;;;;;;;;;;;;;25.89;nan;100201.94;5058637;28;1412;-42
2022/09/14 07:46:16;;;;;;;;;;;;;;;26.05;nan;100195.97;5073561;28;1216;-40
2022/09/14 07:48:43;;;;;;;;;;;;;;;26.10;nan;100217.72;5072904;28;1112;-40
2022/09/14 07:51:10;;;;;;;;;;;;;;;26.16;nan;100225.16;5070098;28;1913;-41
2022/09/14 07:53:41;;;;;;;;;;;;;;;26.19;nan;100214.19;5044709;28;1541;-42
2022/09/14 07:56:09;;;;;;;;;;;;;;;26.01;nan;100199.91;5053573;28;1351;-40
2022/09/14 07:58:37;;;;;;;;;;;;;;;25.91;nan;100220.44;5043755;28;1315;-41
2022/09/14 08:01:07;;;;;;;;;;;;;;;25.77;nan;100203.09;5032100;28;1308;-40
2022/09/14 08:03:38;;;;;;;;;;;;;;;25.84;nan;100214.84;5033291;28;1156;-40
2022/09/14 08:06:06;;;;;;;;;;;;;;;25.75;nan;100172.19;5052557;28;1300;-40
2022/09/14 08:08:35;;;;;;;;;;;;;;;25.81;nan;100160.94;5053610;28;1182;-40
2022/09/14 08:11:04;;;;;;;;;;;;;;;25.75;nan;100153.50;5045472;28;1980;-41
2022/09/14 08:13:35;;;;;;;;;;;;;;;25.98;nan;100147.69;5051229;28;1212;-40
2022/09/14 08:16:02;;;;;;;;;;;;;;;26.08;nan;100135.09;5051868;28;1215;-39
2022/09/14 08:18:29;;;;;;;;;;;;;;;25.94;nan;100156.13;5044881;28;1259;-39
2022/09/14 08:20:56;;;;;;;;;;;;;;;25.60;nan;100154.97;5033455;28;1213;-41
2022/09/14 08:23:24;;;;;;;;;;;;;;;25.75;nan;100193.53;5053643;28;1174;-41
2022/09/14 08:25:52;;;;;;;;;;;;;;;25.66;nan;100192.59;5053176;28;1213;-40
2022/09/14 08:28:18;;;;;;;;;;;;;;;25.81;nan;100201.78;5052993;28;1004;-40
2022/09/14 08:30:46;;;;;;;;;;;;;;;25.90;nan;100213.44;5052208;28;1910;-41
2022/09/14 08:33:12;;;;;;;;;;;;;;;25.98;nan;100205.53;5053194;28;1132;-40
2022/09/14 08:35:43;;;;;;;;;;;;;;;25.69;nan;100197.63;5052808;28;1225;-41
2022/09/14 08:38:23;;;;;;;;;;;;;;;25.78;nan;100199.44;5053165;28;1282;-41
2022/09/14 08:40:50;;;;;;;;;;;;;;;25.86;nan;100174.69;5052757;28;1221;-41
2022/09/14 08:43:18;;;;;;;;;;;;;;;25.78;nan;100166.56;5053161;28;915;-38
2022/09/14 08:45:47;;;;;;;;;;;;;;;25.95;nan;100203.16;5052817;28;1616;-40
2022/09/14 08:48:25;;;;;;;;;;;;;;;26.01;nan;100179.41;5052301;28;1544;-41
2022/09/14 08:50:52;;;;;;;;;;;;;;;26.13;nan;100179.19;5050872;28;1906;-41
2022/09/14 08:53:24;;;;;;;;;;;;;;;25.96;nan;100165.66;5033264;28;1192;-40
2022/09/14 08:55:53;;;;;;;;;;;;;;;25.95;nan;100163.13;5031548;28;1280;-40
2022/09/14 08:58:39;;;;;;;;;;;;;;;25.96;nan;100167.50;5032896;28;1181;-41
2022/09/14 09:01:15;;;;;;;;;;;;;;;25.99;nan;100186.69;5032456;28;1260;-40
2022/09/14 09:03:58;;;;;;;;;;;;;;;26.00;nan;100224.91;5032804;28;668;-42
2022/09/14 09:06:30;;;;;;;;;;;;;;;25.93;nan;100215.81;5032500;28;1304;-38
2022/09/14 09:09:03;;;;;;;;;;;;;;;26.11;nan;100184.69;5032495;28;718;-41
2022/09/14 09:11:35;;;;;;;;;;;;;;;26.22;nan;100149.81;5032570;28;1906;-41
2022/09/14 09:14:07;;;;;;;;;;;;;;;26.27;nan;100114.66;5036534;28;914;-39
2022/09/14 09:16:36;;;;;;;;;;;;;;;26.28;nan;100114.53;5035630;28;1312;-40
2022/09/14 09:19:06;;;;;;;;;;;;;;;26.29;nan;100150.06;5050404;28;1044;-40
2022/09/14 09:21:41;;;;;;;;;;;;;;;26.25;nan;100191.41;5056031;28;1340;-41
2022/09/14 09:24:10;;;;;;;;;;;;;;;26.20;nan;100199.88;5048403;28;1721;-40
2022/09/14 09:26:37;;;;;;;;;;;;;;;26.05;nan;100204.78;5069233;28;1769;-41
2022/09/14 09:29:06;;;;;;;;;;;;;;;26.13;nan;100213.91;5034470;28;1021;-40
2022/09/14 09:31:34;;;;;;;;;;;;;;;26.19;nan;100168.81;5033943;28;1910;-39
2022/09/14 09:34:02;;;;;;;;;;;;;;;26.32;nan;100169.31;5034092;28;675;-37
2022/09/14 09:36:35;;;;;;;;;;;;;;;26.40;nan;100187.22;5034537;28;1213;-40
2022/09/14 09:39:03;;;;;;;;;;;;;;;26.43;nan;100165.56;5040315;28;1682;-38
2022/09/14 09:41:38;;;;;;;;;;;;;;;26.40;nan;100148.03;5038213;28;1708;-39
2022/09/14 09:44:08;;;;;;;;;;;;;;;26.37;nan;100176.84;5039123;28;1781;-40
2022/09/14 09:46:36;;;;;;;;;;;;;;;26.36;nan;100194.69;5038623;28;1724;-39
2022/09/14 09:49:13;;;;;;;;;;;;;;;26.37;nan;100207.06;5036986;28;1841;-40
2022/09/14 09:51:40;;;;;;;;;;;;;;;26.40;nan;100243.31;5040589;28;1972;-41
2022/09/14 09:54:13;;;;;;;;;;;;;;;26.47;nan;100257.75;5054004;28;883;-39
2022/09/14 09:56:49;;;;;;;;;;;;;;;26.39;nan;100231.78;5055199;28;1134;-42
2022/09/14 09:59:27;;;;;;;;;;;;;;;26.41;nan;100208.47;5054271;28;1292;-41
2022/09/14 10:02:13;;;;;;;;;;;;;;;26.54;nan;100198.22;5054353;28;1606;-39
2022/09/14 10:04:55;;;;;;;;;;;;;;;26.60;nan;100200.31;5055692;28;2000;-39
2022/09/14 10:07:22;;;;;;;;;;;;;;;26.60;nan;100192.28;5055828;28;1201;-40
2022/09/14 10:09:59;;;;;;;;;;;;;;;26.63;nan;100206.34;5055420;28;1201;-38
2022/09/14 10:12:26;;;;;;;;;;;;;;;26.63;nan;100247.25;5053806;28;1938;-37
2022/09/14 10:15:12;;;;;;;;;;;;;;;26.66;nan;100248.78;5055692;28;1197;-39
2022/09/14 10:17:39;;;;;;;;;;;;;;;26.68;nan;100214.75;5087111;28;1109;-39
2022/09/14 10:20:06;;;;;;;;;;;;;;;26.61;nan;100204.66;5055416;28;1219;-40
2022/09/14 10:22:33;;;;;;;;;;;;;;;26.68;nan;100196.03;5054745;28;1524;-39
2022/09/14 10:25:01;;;;;;;;;;;;;;;26.74;nan;100192.78;5049753;28;1474;-39
2022/09/14 10:27:49;;;;;;;;;;;;;;;26.80;nan;100205.56;5055401;28;1581;-40
2022/09/14 10:30:18;;;;;;;;;;;;;;;26.85;nan;100212.13;5057767;28;1419;-38
2022/09/14 10:32:51;;;;;;;;;;;;;;;26.88;nan;100206.47;5055346;28;1981;-40
2022/09/14 10:35:19;;;;;;;;;;;;;;;26.89;nan;100191.28;5045065;28;1343;-35
2022/09/14 10:38:15;;;;;;;;;;;;;;;26.91;nan;100189.28;5035552;28;1078;-40
2022/09/14 10:40:44;;;;;;;;;;;;;;;26.93;nan;100139.22;5057768;28;1204;-41
2022/09/14 10:43:11;;;;;;;;;;;;;;;26.66;nan;100105.34;5053422;28;1026;-39
2022/09/14 10:45:46;;;;;;;;;;;;;;;26.76;nan;100107.94;5054250;28;1303;-40
2022/09/14 10:48:19;;;;;;;;;;;;;;;26.79;nan;100153.06;5053893;28;1375;-40
2022/09/14 10:50:56;;;;;;;;;;;;;;;26.85;nan;100195.22;5086723;28;1363;-40
2022/09/14 10:53:30;;;;;;;;;;;;;;;26.85;nan;100214.78;5054828;28;1167;-40
2022/09/14 10:55:59;;;;;;;;;;;;;;;26.83;nan;100231.97;5054775;28;1316;-40
2022/09/14 10:58:34;;;;;;;;;;;;;;;26.85;nan;100216.63;5054759;28;1183;-40
2022/09/14 11:01:04;;;;;;;;;;;;;;;26.86;nan;100196.94;5054754;28;1382;-40
2022/09/14 11:03:33;;;;;;;;;;;;;;;26.72;nan;100160.84;5054926;28;1164;-39
2022/09/14 11:06:26;;;;;;;;;;;;;;;26.81;nan;100233.97;5054671;28;1213;-41
2022/09/14 11:08:53;;;;;;;;;;;;;;;26.84;nan;100221.13;5054257;28;1368;-40
2022/09/14 11:11:26;;;;;;;;;;;;;;;26.79;nan;100191.31;5054014;28;1910;-39
2022/09/14 11:13:56;;;;;;;;;;;;;;;26.85;nan;100173.84;5054662;28;894;-40
2022/09/14 11:16:43;;;;;;;;;;;;;;;26.90;nan;100211.69;5051512;28;1797;-40
2022/09/14 11:19:12;;;;;;;;;;;;;;;26.99;nan;100198.22;5042780;28;985;-41
2022/09/14 11:21:42;;;;;;;;;;;;;;;27.00;nan;100189.19;5077050;28;1091;-40
2022/09/14 11:24:27;;;;;;;;;;;;;;;27.03;nan;100188.91;5046201;28;1189;-38
2022/09/14 11:26:54;;;;;;;;;;;;;;;27.04;nan;100187.06;5053691;28;902;-36
2022/09/14 11:29:32;;;;;;;;;;;;;;;27.03;nan;100182.72;5054023;28;1284;-42
2022/09/14 11:31:59;;;;;;;;;;;;;;;27.00;nan;100183.84;5044492;28;1971;-43
2022/09/14 11:34:53;;;;;;;;;;;;;;;27.05;nan;100194.09;5034494;28;1292;-39
2022/09/14 11:37:25;;;;;;;;;;;;;;;27.15;nan;100192.16;5042765;28;1251;-37
2022/09/14 11:40:08;;;;;;;;;;;;;;;27.17;nan;100197.38;5052328;28;1367;-38
2022/09/14 11:42:51;;;;;;;;;;;;;;;27.19;nan;100195.38;5050355;28;1648;-38
2022/09/14 11:45:21;;;;;;;;;;;;;;;27.19;nan;100188.19;5061765;28;1367;-34
2022/09/14 11:47:54;;;;;;;;;;;;;;;27.15;nan;100186.81;5073833;28;1499;-35
2022/09/14 11:50:26;;;;;;;;;;;;;;;27.21;nan;100191.53;5055463;28;1288;-37
2022/09/14 11:53:03;;;;;;;;;;;;;;;27.11;nan;100190.81;5052379;28;1983;-38
2022/09/14 11:55:31;;;;;;;;;;;;;;;27.08;nan;100216.00;5052294;28;1403;-39
2022/09/14 11:57:58;;;;;;;;;;;;;;;27.11;nan;100221.03;5053351;28;1030;-39
2022/09/14 12:00:32;;;;;;;;;;;;;;;27.07;nan;100219.69;5051845;28;1366;-40
2022/09/14 12:03:12;;;;;;;;;;;;;;;27.11;nan;100233.59;5052397;28;1176;-39
2022/09/14 12:05:42;;;;;;;;;;;;;;;27.02;nan;100216.59;5032552;28;1277;-40
2022/09/14 12:08:32;;;;;;;;;;;;;;;27.15;nan;100213.56;5063776;28;1158;-38
2022/09/14 12:11:03;;;;;;;;;;;;;;;27.21;nan;100234.31;5040618;28;1530;-32
2022/09/14 12:13:31;;;;;;;;;;;;;;;27.20;nan;100221.97;5037753;28;1914;-39
2022/09/14 12:16:05;;;;;;;;;;;;;;;27.14;nan;100222.59;5051999;28;1324;-40
2022/09/14 12:18:35;;;;;;;;;;;;;;;27.17;nan;100227.63;5053518;28;1272;-40
2022/09/14 12:21:07;;;;;;;;;;;;;;;27.27;nan;100227.53;5068425;28;1209;-40
2022/09/14 12:23:36;;;;;;;;;;;;;;;27.33;nan;100227.75;5053184;28;1092;-40
2022/09/14 12:26:09;;;;;;;;;;;;;;;27.31;nan;100237.75;5053290;28;1213;-40
2022/09/14 12:28:36;;;;;;;;;;;;;;;27.26;nan;100223.19;5048180;28;1667;-40
2022/09/14 12:31:03;;;;;;;;;;;;;;;27.24;nan;100227.84;5045331;28;1298;-31
2022/09/14 12:33:30;;;;;;;;;;;;;;;27.23;nan;100226.16;5048840;28;1910;-29
2022/09/14 12:35:57;;;;;;;;;;;;;;;27.21;nan;100239.66;5045678;28;1326;-34
2022/09/14 12:38:30;;;;;;;;;;;;;;;27.22;nan;100246.72;5051677;28;1186;-28
2022/09/14 12:41:17;;;;;;;;;;;;;;;27.23;nan;100248.41;5045134;28;1339;-31
2022/09/14 12:43:44;;;;;;;;;;;;;;;27.24;nan;100255.41;5042294;28;1095;-28
2022/09/14 12:46:21;;;;;;;;;;;;;;;27.23;nan;100256.41;5034404;28;1285;-31
2022/09/14 12:48:53;;;;;;;;;;;;;;;27.24;nan;100243.91;5069544;28;1343;-27
2022/09/14 12:51:22;;;;;;;;;;;;;;;27.23;nan;100237.69;5045940;28;1289;-31
2022/09/14 12:53:57;;;;;;;;;;;;;;;27.22;nan;100267.25;5050787;28;1240;-28
2022/09/14 12:56:25;;;;;;;;;;;;;;;27.29;nan;100246.94;5041410;28;1400;-28
2022/09/14 12:59:01;;;;;;;;;;;;;;;27.30;nan;100272.69;5038644;28;1050;-31
2022/09/14 13:01:33;;;;;;;;;;;;;;;27.28;nan;100261.28;5046835;28;1455;-29
2022/09/14 13:04:01;;;;;;;;;;;;;;;27.28;nan;100246.09;5043329;28;1207;-27
2022/09/14 13:06:48;;;;;;;;;;;;;;;27.30;nan;100270.03;5031803;28;1300;-26
2022/09/14 13:09:18;;;;;;;;;;;;;;;27.33;nan;100291.91;5049183;28;1296;-29
2022/09/14 13:11:46;;;;;;;;;;;;;;;27.34;nan;100282.91;5051264;28;1910;-27
2022/09/14 13:14:25;;;;;;;;;;;;;;;27.34;nan;100280.25;5044193;28;1213;-27
2022/09/14 13:16:53;;;;;;;;;;;;;;;27.34;nan;100269.53;5044389;28;1124;-26
2022/09/14 13:19:28;;;;;;;;;;;;;;;27.26;nan;100256.13;5042689;28;1288;-27
2022/09/14 13:21:55;;;;;;;;;;;;;;;27.28;nan;100261.28;5032084;28;1116;-29
2022/09/14 13:24:34;;;;;;;;;;;;;;;27.33;nan;100273.19;5032560;28;1378;-27